Impacts METAR Board INFO
IDs:

KCLT - Charlotte/Douglas In, NC, US

Updated at: 1210 UTC 12 Dec 2017
Potential Impact None Slight Moderate High
Time12/00Z 12/01Z 12/02Z 12/03Z 12/04Z 12/05Z 12/06Z 12/07Z 12/08Z 12/09Z 12/10Z 12/11Z 12/12Z
VIS10 10 10 10 10 10 10 10 10 10 10 10 10
CIG-- -- -- -- -- -- -- -- -- -- -- 250 --
CoverFEWFEWCLRCLRCLRCLRCLRCLRCLRCLRSCTBKNCLR
FltCatVFRVFRVFRVFRVFRVFRVFRVFRVFRVFRVFRVFRVFR
WX--------------------------
WDir180170180160190180210210230230230230240
WSpd7 8 6 5 4 4 4 7 5 6 6 4 5
WGst-- -- -- -- -- -- -- -- -- -- -- -- --
Raw hourly METARs
KCLT 112352Z 18007KT 10SM FEW250 08/M01 A2999 RMK AO2 SLP158 T00781006 10128 20067 55005
KCLT 120052Z 17008KT 10SM FEW250 06/00 A2997 RMK AO2 SLP150 T00610000
KCLT 120152Z 18006KT 10SM CLR 06/00 A2995 RMK AO2 SLP145 T00560000
KCLT 120252Z 16005KT 10SM CLR 04/00 A2993 RMK AO2 SLP138 T00440000 56019
KCLT 120352Z 19004KT 10SM CLR 06/01 A2991 RMK AO2 SLP129 T00560006
KCLT 120452Z 18004KT 10SM CLR 04/01 A2988 RMK AO2 SLP120 T00440006 401281028
KCLT 120552Z 21004KT 10SM CLR 06/02 A2986 RMK AO2 SLP110 T00560017 10083 20039 58025
KCLT 120652Z 21007KT 10SM CLR 06/02 A2982 RMK AO2 SLP097 T00560017
KCLT 120752Z 23005KT 10SM CLR 06/02 A2980 RMK AO2 SLP089 T00610017
KCLT 120852Z 23006KT 10SM CLR 06/02 A2978 RMK AO2 SLP082 T00560017 56027
KCLT 120952Z 23006KT 10SM SCT250 06/01 A2976 RMK AO2 SLP077 T00560011
KCLT 121052Z 23004KT 10SM BKN250 06/02 A2975 RMK AO2 SLP073 T00560017
KCLT 121152Z 24005KT 10SM CLR 06/02 A2975 RMK AO2 SLP073 T00560017 10067 20050 55009